createdAt,value
2024-01-08T00:02:09.445Z,5.18
2024-01-08T00:04:36.583Z,4.85
2024-01-08T00:07:04.042Z,4.22
2024-01-08T00:09:32.105Z,5.10
2024-01-08T00:11:59.170Z,4.25
2024-01-08T00:14:26.759Z,4.03
2024-01-08T00:16:53.938Z,5.97
2024-01-08T00:19:21.495Z,4.32
2024-01-08T00:21:48.681Z,3.83
2024-01-08T00:24:15.797Z,4.22
2024-01-08T00:26:42.987Z,4.70
2024-01-08T00:29:09.985Z,4.53
2024-01-08T00:31:37.029Z,3.58
2024-01-08T00:34:04.700Z,5.32
2024-01-08T00:36:32.940Z,3.90
2024-01-08T00:39:00.043Z,3.42
2024-01-08T00:41:27.538Z,5.00
2024-01-08T00:43:54.901Z,4.55
2024-01-08T00:46:22.036Z,4.93
2024-01-08T00:48:49.252Z,4.72
2024-01-08T00:51:16.348Z,4.45
2024-01-08T00:53:43.353Z,4.55
2024-01-08T00:56:11.004Z,4.18
2024-01-08T00:58:43.313Z,4.72
2024-01-08T01:01:12.783Z,4.35
2024-01-08T01:03:39.969Z,4.90
2024-01-08T01:06:07.144Z,4.45
2024-01-08T01:08:34.405Z,3.78
2024-01-08T01:11:02.017Z,4.50
2024-01-08T01:13:29.184Z,4.88
2024-01-08T01:15:56.681Z,5.25
2024-01-08T01:18:23.932Z,4.05
2024-01-08T01:20:51.063Z,4.57
2024-01-08T01:23:18.165Z,5.90
2024-01-08T01:25:45.335Z,5.32
2024-01-08T01:28:12.273Z,6.13
2024-01-08T01:30:39.436Z,6.93
2024-01-08T01:33:06.705Z,6.72
2024-01-08T01:35:33.797Z,6.47
2024-01-08T01:38:01.102Z,6.35
2024-01-08T01:40:28.414Z,5.75
2024-01-08T01:42:58.173Z,5.63
2024-01-08T01:45:25.560Z,5.38
2024-01-08T01:47:56.680Z,5.43
2024-01-08T01:50:24.810Z,4.30
2024-01-08T01:52:52.896Z,5.05
2024-01-08T01:55:20.044Z,3.38
2024-01-08T01:57:47.996Z,4.15
2024-01-08T02:00:16.244Z,4.13
2024-01-08T02:02:44.877Z,4.00
2024-01-08T02:05:14.153Z,3.45
2024-01-08T02:07:42.689Z,4.18
2024-01-08T02:10:09.851Z,3.90
2024-01-08T02:12:37.460Z,3.63
2024-01-08T02:15:05.851Z,3.90
2024-01-08T02:17:33.240Z,4.57
2024-01-08T02:20:00.410Z,4.03
2024-01-08T02:22:28.522Z,3.58
2024-01-08T02:24:56.292Z,3.67
2024-01-08T02:27:23.658Z,4.63
2024-01-08T02:29:50.652Z,3.67
2024-01-08T02:32:17.577Z,3.85
2024-01-08T02:34:44.748Z,3.25
2024-01-08T02:37:13.705Z,3.67
2024-01-08T02:39:40.744Z,3.60
2024-01-08T02:42:07.984Z,2.78
2024-01-08T02:44:35.282Z,3.33
2024-01-08T02:47:03.239Z,3.08
2024-01-08T02:49:30.434Z,4.57
2024-01-08T02:51:58.146Z,3.33
2024-01-08T02:54:25.154Z,3.22
2024-01-08T02:56:52.414Z,4.10
2024-01-08T02:59:19.682Z,3.15
2024-01-08T03:01:46.655Z,4.28
2024-01-08T03:04:13.866Z,3.00
2024-01-08T03:06:41.575Z,4.13
2024-01-08T03:09:08.630Z,3.58
2024-01-08T03:11:35.813Z,4.32
2024-01-08T03:14:03.104Z,4.25
2024-01-08T03:16:30.149Z,3.67
2024-01-08T03:18:57.824Z,3.13
2024-01-08T03:21:25.285Z,3.00
2024-01-08T03:23:52.491Z,2.58
2024-01-08T03:26:19.875Z,2.88
2024-01-08T03:28:47.043Z,3.05
2024-01-08T03:31:14.180Z,3.30
2024-01-08T03:33:41.416Z,3.45
2024-01-08T03:36:12.357Z,3.00
2024-01-08T03:38:39.418Z,2.40
2024-01-08T03:41:06.605Z,2.70
2024-01-08T03:43:33.800Z,2.53
2024-01-08T03:46:00.845Z,3.13
2024-01-08T03:48:28.168Z,2.05
2024-01-08T03:50:55.526Z,2.53
2024-01-08T03:53:22.715Z,1.95
2024-01-08T03:55:49.921Z,2.47
2024-01-08T03:58:17.115Z,2.55
2024-01-08T04:00:44.906Z,1.67
2024-01-08T04:03:12.306Z,2.45
2024-01-08T04:05:39.948Z,3.10
2024-01-08T04:08:07.250Z,2.67
2024-01-08T04:10:34.391Z,2.05
2024-01-08T04:13:01.588Z,2.85
2024-01-08T04:15:28.703Z,3.42
2024-01-08T04:17:56.036Z,2.58
2024-01-08T04:20:23.530Z,2.45
2024-01-08T04:22:51.657Z,2.63
2024-01-08T04:25:18.700Z,2.65
2024-01-08T04:27:46.142Z,3.53
2024-01-08T04:30:13.592Z,2.42
2024-01-08T04:32:40.806Z,2.75
2024-01-08T04:35:08.755Z,3.05
2024-01-08T04:37:35.853Z,3.20
2024-01-08T04:40:04.155Z,2.75
2024-01-08T04:42:31.295Z,2.33
2024-01-08T04:44:58.919Z,2.35
2024-01-08T04:47:26.719Z,2.45
2024-01-08T04:49:53.894Z,1.42
2024-01-08T04:52:20.907Z,2.35
2024-01-08T04:54:48.217Z,2.15
2024-01-08T04:57:15.246Z,2.13
2024-01-08T04:59:45.675Z,1.50
2024-01-08T05:02:13.295Z,1.45
2024-01-08T05:04:40.479Z,2.13
2024-01-08T05:07:08.582Z,2.28
2024-01-08T05:09:35.765Z,1.85
2024-01-08T05:12:04.693Z,2.40
2024-01-08T05:14:31.795Z,2.25
2024-01-08T05:16:59.139Z,2.38
2024-01-08T05:19:28.940Z,1.80
2024-01-08T05:21:56.410Z,2.40
2024-01-08T05:24:23.462Z,2.25
2024-01-08T05:26:50.637Z,2.25
2024-01-08T05:29:17.737Z,2.40
2024-01-08T05:31:44.911Z,2.00
2024-01-08T05:34:11.926Z,1.63
2024-01-08T05:36:43.104Z,1.95
2024-01-08T05:39:10.300Z,2.47
2024-01-08T05:41:42.351Z,2.17
2024-01-08T05:44:10.277Z,2.05
2024-01-08T05:46:45.539Z,2.65
2024-01-08T05:49:12.985Z,2.08
2024-01-08T05:51:40.191Z,2.53
2024-01-08T05:54:07.786Z,2.67
2024-01-08T05:56:34.957Z,3.28
2024-01-08T05:59:02.089Z,2.28
2024-01-08T06:01:29.251Z,3.17
2024-01-08T06:03:56.652Z,3.58
2024-01-08T06:06:23.985Z,2.53
2024-01-08T06:08:51.567Z,2.60
2024-01-08T06:11:18.809Z,2.78
2024-01-08T06:13:45.906Z,2.92
2024-01-08T06:16:17.167Z,2.78
2024-01-08T06:18:44.405Z,3.25
2024-01-08T06:21:11.630Z,3.40
2024-01-08T06:23:39.070Z,3.38
2024-01-08T06:26:06.347Z,2.50
2024-01-08T06:28:34.196Z,3.38
2024-01-08T06:31:04.828Z,3.20
2024-01-08T06:33:32.081Z,3.17
2024-01-08T06:35:59.582Z,3.40
2024-01-08T06:38:27.075Z,2.45
2024-01-08T06:40:54.289Z,3.10
2024-01-08T06:43:21.499Z,3.75
2024-01-08T06:45:50.511Z,3.55
2024-01-08T06:48:17.638Z,3.33
2024-01-08T06:50:44.827Z,4.22
2024-01-08T06:53:12.039Z,2.78
2024-01-08T06:55:39.096Z,3.40
2024-01-08T06:58:06.305Z,3.40
2024-01-08T07:00:33.438Z,3.90
2024-01-08T07:03:00.576Z,4.35
2024-01-08T07:05:28.099Z,3.92
2024-01-08T07:07:55.373Z,4.22
2024-01-08T07:10:22.606Z,4.00
2024-01-08T07:12:49.960Z,3.92
2024-01-08T07:15:40.138Z,3.15
2024-01-08T07:18:10.273Z,3.40
2024-01-08T07:20:38.677Z,3.50
2024-01-08T07:23:07.158Z,4.07
2024-01-08T07:25:36.650Z,3.08
2024-01-08T07:28:04.657Z,3.22
2024-01-08T07:30:32.052Z,3.60
2024-01-08T07:32:59.931Z,3.70
2024-01-08T07:35:27.261Z,3.47
2024-01-08T07:37:57.880Z,3.05
2024-01-08T07:40:29.603Z,2.67
2024-01-08T07:42:57.768Z,3.58
2024-01-08T07:45:28.097Z,2.85
2024-01-08T07:47:58.758Z,2.80
2024-01-08T07:50:26.159Z,2.45
2024-01-08T07:52:53.327Z,3.13
2024-01-08T07:55:21.290Z,2.83
2024-01-08T07:57:48.486Z,2.40
2024-01-08T08:00:16.323Z,2.78
2024-01-08T08:02:43.775Z,2.28
2024-01-08T08:05:11.176Z,2.50
2024-01-08T08:07:38.795Z,2.42
2024-01-08T08:10:06.708Z,2.88
2024-01-08T08:12:34.018Z,2.40
2024-01-08T08:15:01.290Z,2.40
2024-01-08T08:17:28.756Z,2.03
2024-01-08T08:19:56.131Z,1.95
2024-01-08T08:22:23.705Z,1.85
2024-01-08T08:24:51.048Z,2.15
2024-01-08T08:27:18.157Z,2.47
2024-01-08T08:29:46.986Z,2.50
2024-01-08T08:32:14.160Z,1.65
2024-01-08T08:34:41.615Z,2.30
2024-01-08T08:37:09.865Z,2.05
2024-01-08T08:39:37.934Z,2.30
2024-01-08T08:42:06.777Z,1.58
2024-01-08T08:44:34.987Z,1.67
2024-01-08T08:47:03.545Z,1.70
2024-01-08T08:49:31.393Z,2.20
2024-01-08T08:52:00.264Z,2.25
2024-01-08T08:54:27.884Z,1.85
2024-01-08T08:56:54.994Z,1.85
2024-01-08T08:59:22.292Z,1.70
2024-01-08T09:01:52.526Z,1.48
2024-01-08T09:04:21.886Z,1.55
2024-01-08T09:06:51.359Z,1.50
2024-01-08T09:09:19.501Z,1.40
2024-01-08T09:11:47.525Z,1.50
2024-01-08T09:14:15.319Z,1.33
2024-01-08T09:16:42.481Z,1.80
2024-01-08T09:19:09.918Z,1.20
2024-01-08T09:21:37.204Z,1.63
2024-01-08T09:24:06.413Z,1.60
2024-01-08T09:26:33.718Z,1.52
2024-01-08T09:29:00.845Z,1.40
2024-01-08T09:31:28.164Z,1.77
2024-01-08T09:33:55.743Z,1.50
2024-01-08T09:36:23.104Z,1.85
2024-01-08T09:38:50.103Z,1.40
2024-01-08T09:41:23.616Z,1.50
2024-01-08T09:43:53.542Z,1.45
2024-01-08T09:46:27.995Z,1.83
2024-01-08T09:48:57.003Z,1.63
2024-01-08T09:51:24.730Z,1.80
2024-01-08T09:53:54.161Z,1.63
2024-01-08T09:56:24.148Z,1.52
2024-01-08T09:58:51.583Z,2.08
2024-01-08T10:01:18.670Z,1.48
2024-01-08T10:03:47.292Z,1.50
2024-01-08T10:06:14.461Z,1.23
2024-01-08T10:08:41.713Z,0.90
2024-01-08T10:11:09.289Z,1.10
2024-01-08T10:13:37.036Z,1.38
2024-01-08T10:16:04.427Z,1.20
2024-01-08T10:18:31.817Z,1.30
2024-01-08T10:21:12.170Z,1.00
2024-01-08T10:23:39.787Z,1.20
2024-01-08T10:26:07.629Z,1.27
2024-01-08T10:28:38.815Z,1.33
2024-01-08T10:31:07.229Z,0.73
2024-01-08T10:33:34.765Z,1.65
2024-01-08T10:36:05.866Z,1.15
2024-01-08T10:38:34.134Z,0.98
2024-01-08T10:41:03.070Z,0.90
2024-01-08T10:43:30.653Z,0.88
2024-01-08T10:46:03.732Z,0.93
2024-01-08T10:48:42.396Z,0.75
2024-01-08T10:51:10.894Z,0.77
2024-01-08T10:53:42.942Z,1.05
2024-01-08T10:56:16.233Z,1.40
2024-01-08T10:58:52.818Z,1.00
2024-01-08T11:01:21.086Z,0.77
2024-01-08T11:03:48.666Z,0.90
2024-01-08T11:06:17.857Z,1.02
2024-01-08T11:08:46.121Z,1.30
2024-01-08T11:11:16.665Z,0.90
2024-01-08T11:13:44.992Z,0.95
2024-01-08T11:16:19.092Z,0.90
2024-01-08T11:18:46.552Z,0.70
2024-01-08T11:21:13.709Z,1.58
2024-01-08T11:23:44.623Z,1.10
2024-01-08T11:26:19.757Z,1.17
2024-01-08T11:29:06.470Z,1.10
2024-01-08T11:31:52.513Z,0.73
2024-01-08T11:34:38.842Z,0.60
2024-01-08T11:37:33.763Z,0.93
2024-01-08T11:40:18.965Z,0.35
2024-01-08T11:42:48.015Z,1.00
2024-01-08T11:45:15.830Z,0.80
2024-01-08T11:47:45.438Z,0.88
2024-01-08T11:50:13.212Z,0.82
2024-01-08T11:52:41.484Z,0.90
2024-01-08T11:55:12.042Z,1.08
2024-01-08T11:57:39.676Z,1.00
2024-01-08T12:00:20.651Z,0.82
2024-01-08T12:02:49.127Z,0.88
2024-01-08T12:05:17.056Z,1.02
2024-01-08T12:07:44.561Z,0.80
2024-01-08T12:10:14.060Z,1.20
2024-01-08T12:12:42.169Z,0.93
2024-01-08T12:15:10.202Z,0.90
2024-01-08T12:17:38.114Z,0.80
2024-01-08T12:20:06.056Z,0.90
2024-01-08T12:22:33.282Z,1.05
2024-01-08T12:25:00.517Z,0.98
2024-01-08T12:27:31.922Z,0.82
2024-01-08T12:29:59.569Z,0.77
2024-01-08T12:32:28.867Z,0.73
2024-01-08T12:34:57.321Z,0.90
2024-01-08T12:37:25.361Z,0.68
2024-01-08T12:39:53.738Z,1.02
2024-01-08T12:42:21.606Z,0.88
2024-01-08T12:44:49.737Z,0.90
2024-01-08T12:47:17.335Z,0.75
2024-01-08T12:49:44.957Z,0.80
2024-01-08T12:52:13.537Z,0.82
2024-01-08T12:54:42.768Z,0.65
2024-01-08T12:57:12.105Z,0.45
2024-01-08T12:59:51.245Z,0.40
2024-01-08T13:02:18.609Z,0.90
2024-01-08T13:04:48.456Z,0.80
2024-01-08T13:07:15.617Z,1.17
2024-01-08T13:09:42.838Z,0.70
2024-01-08T13:12:12.788Z,1.10
2024-01-08T13:14:40.695Z,0.60
2024-01-08T13:17:10.134Z,0.60
2024-01-08T13:19:38.618Z,0.60
2024-01-08T13:22:06.106Z,0.98
2024-01-08T13:24:34.053Z,0.95
2024-01-08T13:27:01.075Z,0.82
2024-01-08T13:29:29.522Z,0.95
2024-01-08T13:31:56.736Z,0.93
2024-01-08T13:34:23.883Z,0.73
2024-01-08T13:36:51.981Z,0.80
2024-01-08T13:39:19.211Z,0.55
2024-01-08T13:41:46.341Z,0.70
2024-01-08T13:44:14.088Z,0.85
2024-01-08T13:46:41.245Z,0.75
2024-01-08T13:49:08.407Z,0.98
2024-01-08T13:51:35.840Z,1.00
2024-01-08T13:54:06.723Z,0.85
2024-01-08T13:56:34.953Z,0.75
2024-01-08T13:59:02.190Z,0.80
2024-01-08T14:01:29.544Z,0.80
2024-01-08T14:03:56.869Z,0.68
2024-01-08T14:06:24.205Z,0.63
2024-01-08T14:08:51.525Z,1.15
2024-01-08T14:11:18.716Z,0.95
2024-01-08T14:13:46.218Z,0.90
2024-01-08T14:16:13.631Z,0.90
2024-01-08T14:18:41.988Z,1.15
2024-01-08T14:21:10.374Z,1.00
2024-01-08T14:23:37.439Z,0.80
2024-01-08T14:26:05.406Z,1.17
2024-01-08T14:28:32.712Z,1.55
2024-01-08T14:31:00.073Z,1.48
2024-01-08T14:33:28.009Z,1.35
2024-01-08T14:35:55.333Z,1.52
2024-01-08T14:38:22.915Z,0.63
2024-01-08T14:40:50.408Z,1.33
2024-01-08T14:43:18.967Z,1.55
2024-01-08T14:45:46.489Z,0.90
2024-01-08T14:48:14.772Z,1.10
2024-01-08T14:50:42.610Z,1.17
2024-01-08T14:53:09.696Z,0.80
2024-01-08T14:55:36.946Z,0.90
2024-01-08T14:58:04.837Z,0.73
2024-01-08T15:00:32.855Z,1.40
2024-01-08T15:03:00.518Z,0.80
2024-01-08T15:05:28.227Z,0.80
2024-01-08T15:07:55.398Z,1.48
2024-01-08T15:10:22.563Z,0.85
2024-01-08T15:12:49.829Z,1.15
2024-01-08T15:15:18.640Z,1.73
2024-01-08T15:17:47.210Z,1.15
2024-01-08T15:20:17.906Z,1.17
2024-01-08T15:22:47.584Z,0.77
2024-01-08T15:25:14.710Z,1.15
2024-01-08T15:27:41.921Z,1.40
2024-01-08T15:30:15.098Z,1.42
2024-01-08T15:32:43.386Z,1.58
2024-01-08T15:35:12.791Z,1.48
2024-01-08T15:37:40.133Z,1.25
2024-01-08T15:40:08.854Z,1.42
2024-01-08T15:42:36.094Z,1.70
2024-01-08T15:45:06.787Z,1.70
2024-01-08T15:47:34.322Z,1.30
2024-01-08T15:50:02.212Z,1.27
2024-01-08T15:52:29.404Z,0.93
2024-01-08T15:54:59.006Z,1.08
2024-01-08T15:57:26.160Z,0.88
2024-01-08T15:59:53.191Z,1.27
2024-01-08T16:02:20.368Z,1.48
2024-01-08T16:04:47.649Z,0.88
2024-01-08T16:07:16.025Z,0.82
2024-01-08T16:09:43.107Z,1.10
2024-01-08T16:12:10.521Z,0.90
2024-01-08T16:14:37.575Z,1.00
2024-01-08T16:17:05.057Z,0.98
2024-01-08T16:19:32.339Z,0.80
2024-01-08T16:22:00.520Z,0.85
2024-01-08T16:24:27.927Z,0.90
2024-01-08T16:26:54.925Z,1.45
2024-01-08T16:29:22.033Z,1.25
2024-01-08T16:31:49.301Z,1.25
2024-01-08T16:34:16.896Z,1.02
2024-01-08T16:36:44.180Z,1.08
2024-01-08T16:39:11.196Z,0.90
2024-01-08T16:41:38.708Z,0.98
2024-01-08T16:44:06.142Z,1.27
2024-01-08T16:46:34.777Z,1.10
2024-01-08T16:49:02.642Z,1.48
2024-01-08T16:51:30.229Z,1.05
2024-01-08T16:53:59.318Z,1.08
2024-01-08T16:56:30.283Z,1.20
2024-01-08T16:58:57.712Z,1.50
2024-01-08T17:01:25.855Z,1.50
2024-01-08T17:03:52.958Z,1.40
2024-01-08T17:06:20.745Z,1.30
2024-01-08T17:08:48.261Z,1.25
2024-01-08T17:11:15.403Z,1.02
2024-01-08T17:13:42.567Z,1.27
2024-01-08T17:16:09.719Z,1.33
2024-01-08T17:18:36.961Z,0.90
2024-01-08T17:21:04.184Z,1.08
2024-01-08T17:23:31.428Z,1.50
2024-01-08T17:25:58.635Z,1.23
2024-01-08T17:28:26.049Z,1.48
2024-01-08T17:30:53.266Z,1.60
2024-01-08T17:33:21.180Z,0.90
2024-01-08T17:35:49.120Z,1.00
2024-01-08T17:38:18.994Z,1.42
2024-01-08T17:40:47.106Z,0.93
2024-01-08T17:43:14.306Z,0.77
2024-01-08T17:45:41.603Z,1.00
2024-01-08T17:48:09.539Z,0.80
2024-01-08T17:50:36.916Z,1.00
2024-01-08T17:53:04.627Z,0.70
2024-01-08T17:55:33.450Z,1.20
2024-01-08T17:58:00.830Z,1.60
2024-01-08T18:00:29.596Z,1.25
2024-01-08T18:02:57.926Z,1.55
2024-01-08T18:05:25.967Z,1.88
2024-01-08T18:07:53.623Z,1.48
2024-01-08T18:10:20.740Z,1.80
2024-01-08T18:12:48.845Z,1.80
2024-01-08T18:15:16.862Z,2.05
2024-01-08T18:17:46.671Z,1.90
2024-01-08T18:20:15.399Z,1.90
2024-01-08T18:22:42.814Z,2.03
2024-01-08T18:25:09.875Z,1.30
2024-01-08T18:27:37.101Z,1.67
2024-01-08T18:30:06.112Z,1.50
2024-01-08T18:32:33.367Z,1.45
2024-01-08T18:35:00.977Z,1.70
2024-01-08T18:37:31.888Z,1.50
2024-01-08T18:40:00.156Z,2.13
2024-01-08T18:42:28.029Z,1.52
2024-01-08T18:44:55.478Z,1.73
2024-01-08T18:47:24.503Z,1.20
2024-01-08T18:49:51.872Z,1.45
2024-01-08T18:52:19.104Z,1.40
2024-01-08T18:54:46.233Z,1.83
2024-01-08T18:57:13.263Z,1.60
2024-01-08T18:59:41.550Z,1.50
2024-01-08T19:02:08.679Z,1.98
2024-01-08T19:04:36.096Z,1.42
2024-01-08T19:07:05.244Z,1.52
2024-01-08T19:09:32.354Z,1.52
2024-01-08T19:12:00.123Z,1.30
2024-01-08T19:14:28.014Z,1.88
2024-01-08T19:16:55.104Z,1.13
2024-01-08T19:19:22.414Z,1.25
2024-01-08T19:21:50.167Z,1.40
2024-01-08T19:24:18.404Z,1.45
2024-01-08T19:26:46.108Z,1.80
2024-01-08T19:29:13.444Z,1.45
2024-01-08T19:31:47.302Z,1.33
2024-01-08T19:34:14.607Z,1.90
2024-01-08T19:36:41.991Z,1.50
2024-01-08T19:39:09.009Z,1.40
2024-01-08T19:41:36.617Z,1.48
2024-01-08T19:44:04.292Z,1.20
2024-01-08T19:46:31.621Z,1.27
2024-01-08T19:49:01.686Z,1.48
2024-01-08T19:51:32.259Z,1.00
2024-01-08T19:53:59.456Z,1.13
2024-01-08T19:56:26.632Z,1.40
2024-01-08T19:58:53.769Z,1.50
2024-01-08T20:01:20.942Z,1.63
2024-01-08T20:03:48.184Z,1.38
2024-01-08T20:06:15.609Z,1.55
2024-01-08T20:08:42.857Z,1.63
2024-01-08T20:11:12.153Z,1.20
2024-01-08T20:13:39.549Z,1.45
2024-01-08T20:16:08.178Z,1.48
2024-01-08T20:18:35.767Z,1.30
2024-01-08T20:21:06.296Z,1.38
2024-01-08T20:23:34.595Z,1.20
2024-01-08T20:26:12.395Z,0.90
2024-01-08T20:28:40.584Z,1.30
2024-01-08T20:31:08.426Z,1.27
2024-01-08T20:33:36.438Z,1.33
2024-01-08T20:36:03.936Z,1.30
2024-01-08T20:38:32.436Z,1.00
2024-01-08T20:40:59.840Z,2.28
2024-01-08T20:43:27.982Z,1.20
2024-01-08T20:45:54.989Z,1.25
2024-01-08T20:48:22.484Z,1.10
2024-01-08T20:50:50.296Z,1.10
2024-01-08T20:53:17.439Z,1.05
2024-01-08T20:55:44.910Z,1.33
2024-01-08T20:58:11.997Z,1.20
2024-01-08T21:00:39.416Z,1.10
2024-01-08T21:03:06.713Z,1.13
2024-01-08T21:05:34.086Z,1.35
2024-01-08T21:08:01.479Z,1.20
2024-01-08T21:10:28.865Z,1.00
2024-01-08T21:12:58.247Z,0.93
2024-01-08T21:15:25.374Z,1.70
2024-01-08T21:17:52.996Z,1.10
2024-01-08T21:20:20.209Z,1.48
2024-01-08T21:22:47.386Z,0.98
2024-01-08T21:25:14.845Z,1.27
2024-01-08T21:27:45.524Z,1.25
2024-01-08T21:30:13.453Z,1.38
2024-01-08T21:32:40.953Z,1.27
2024-01-08T21:35:10.505Z,1.42
2024-01-08T21:37:39.873Z,1.75
2024-01-08T21:40:10.479Z,1.60
2024-01-08T21:42:38.018Z,1.48
2024-01-08T21:45:05.561Z,1.48
2024-01-08T21:47:32.865Z,1.27
2024-01-08T21:50:01.191Z,1.85
2024-01-08T21:52:28.544Z,1.02
2024-01-08T21:54:55.746Z,1.20
2024-01-08T21:57:22.866Z,1.00
2024-01-08T21:59:49.893Z,1.05
2024-01-08T22:02:17.106Z,1.05
2024-01-08T22:04:44.466Z,1.50
2024-01-08T22:07:11.617Z,2.05
2024-01-08T22:09:38.906Z,1.30
2024-01-08T22:12:06.598Z,1.83
2024-01-08T22:14:33.858Z,0.95
2024-01-08T22:17:01.107Z,1.17
2024-01-08T22:19:31.248Z,1.75
2024-01-08T22:22:01.484Z,1.10
2024-01-08T22:24:28.901Z,1.40
2024-01-08T22:26:58.660Z,1.77
2024-01-08T22:29:25.970Z,1.70
2024-01-08T22:31:53.318Z,1.55
2024-01-08T22:34:20.416Z,1.58
2024-01-08T22:36:47.982Z,2.00
2024-01-08T22:39:15.147Z,1.35
2024-01-08T22:41:42.184Z,1.50
2024-01-08T22:44:14.502Z,1.00
2024-01-08T22:46:51.527Z,1.30
2024-01-08T22:49:18.712Z,1.10
2024-01-08T22:51:45.926Z,1.80
2024-01-08T22:54:13.034Z,1.30
2024-01-08T22:56:40.303Z,1.10
2024-01-08T22:59:07.364Z,1.63
2024-01-08T23:01:34.699Z,1.85
2024-01-08T23:04:01.882Z,1.70
2024-01-08T23:06:29.476Z,1.40
2024-01-08T23:08:56.762Z,1.38
2024-01-08T23:11:23.731Z,1.23
2024-01-08T23:13:52.205Z,1.42
2024-01-08T23:16:19.389Z,1.35
2024-01-08T23:18:46.742Z,1.45
2024-01-08T23:21:13.915Z,1.42
2024-01-08T23:23:41.099Z,1.55
2024-01-08T23:26:08.585Z,1.80
2024-01-08T23:28:35.866Z,1.70
2024-01-08T23:31:02.987Z,1.35
2024-01-08T23:33:30.654Z,1.10
2024-01-08T23:35:57.994Z,1.42
2024-01-08T23:38:29.956Z,1.25
2024-01-08T23:40:57.612Z,1.55
2024-01-08T23:43:24.627Z,1.60
2024-01-08T23:45:51.659Z,1.42
2024-01-08T23:48:19.168Z,1.10
2024-01-08T23:50:46.669Z,1.35
2024-01-08T23:53:13.931Z,1.52
2024-01-08T23:55:40.983Z,1.13
2024-01-08T23:58:08.124Z,1.27
